Time,TemperatureF,DewpointF,PressureIn,WindDirection,WindDirectionDegrees,WindSpeedMPH,WindSpeedGustMPH,Humidity,HourlyPrecipIn,Conditions,Clouds,dailyrainin,SoftwareType,DateUTC
2013-02-19 00:00:00,55.4,32.7,30.07,North,0,0.0,0.0,42,0.00,,CLR,0.00,VWS V14.01,2013-02-19 06:00:00,
2013-02-19 00:10:00,54.7,32.7,30.07,ESE,112,0.0,2.0,43,0.00,,CLR,0.00,VWS V14.01,2013-02-19 06:10:00,
2013-02-19 00:20:00,54.1,32.1,30.07,ESE,112,0.0,1.0,43,0.00,,CLR,0.00,VWS V14.01,2013-02-19 06:20:00,
2013-02-19 00:30:00,53.7,31.2,30.07,ESE,112,0.0,2.0,42,0.00,,CLR,0.00,VWS V14.01,2013-02-19 06:30:00,
2013-02-19 00:40:00,53.7,31.2,30.07,ESE,112,0.0,4.0,42,0.00,,CLR,0.00,VWS V14.01,2013-02-19 06:40:00,
2013-02-19 00:50:00,54.1,31.5,30.07,ENE,68,0.0,2.0,42,0.00,,CLR,0.00,VWS V14.01,2013-02-19 06:50:00,
2013-02-19 01:00:00,54.2,31.6,30.07,NNE,22,1.0,3.0,42,0.00,,CLR,0.00,VWS V14.01,2013-02-19 07:00:00,
2013-02-19 01:10:00,54.3,31.1,30.07,NNE,22,0.0,3.0,41,0.00,,CLR,0.00,VWS V14.01,2013-02-19 07:10:00,
2013-02-19 01:20:00,54.2,31.0,30.08,NNE,22,0.0,1.0,41,0.00,,CLR,0.00,VWS V14.01,2013-02-19 07:20:00,
2013-02-19 01:30:00,54.0,30.9,30.09,NNE,22,0.0,1.0,41,0.00,,CLR,0.00,VWS V14.01,2013-02-19 07:30:00,
2013-02-19 01:40:00,53.7,32.9,30.09,NNE,22,0.0,2.0,45,0.00,,CLR,0.00,VWS V14.01,2013-02-19 07:40:00,
2013-02-19 01:50:00,52.8,31.5,30.08,NNE,22,0.0,1.0,44,0.00,,CLR,0.00,VWS V14.01,2013-02-19 07:50:00,
2013-02-19 02:00:00,52.6,31.9,30.09,NNE,22,0.0,2.0,45,0.00,,CLR,0.00,VWS V14.01,2013-02-19 08:00:00,
2013-02-19 02:10:00,51.9,32.3,30.09,NNE,22,0.0,2.0,47,0.00,,CLR,0.00,VWS V14.01,2013-02-19 08:10:00,
2013-02-19 02:20:00,51.0,31.5,30.09,East,90,0.0,2.0,47,0.00,,CLR,0.00,VWS V14.01,2013-02-19 08:20:00,
2013-02-19 02:30:00,50.9,30.9,30.10,East,90,0.0,1.0,46,0.00,,CLR,0.00,VWS V14.01,2013-02-19 08:30:00,
2013-02-19 02:40:00,51.1,31.1,30.10,East,90,0.0,3.0,46,0.00,,CLR,0.00,VWS V14.01,2013-02-19 08:40:00,
2013-02-19 02:50:00,50.6,31.6,30.12,East,90,0.0,0.0,48,0.00,,CLR,0.00,VWS V14.01,2013-02-19 08:50:00,
2013-02-19 03:00:00,49.8,30.9,30.12,East,90,0.0,1.0,48,0.00,,CLR,0.00,VWS V14.01,2013-02-19 09:00:00,
2013-02-19 03:10:00,49.7,31.3,30.12,East,90,0.0,1.0,49,0.00,,CLR,0.00,VWS V14.01,2013-02-19 09:10:00,
2013-02-19 03:20:00,49.5,31.1,30.12,East,90,0.0,1.0,49,0.00,,CLR,0.00,VWS V14.01,2013-02-19 09:20:00,
2013-02-19 03:30:00,49.4,31.1,30.13,East,90,0.0,0.0,49,0.00,,CLR,0.00,VWS V14.01,2013-02-19 09:30:00,
2013-02-19 03:40:00,49.0,31.7,30.13,East,90,0.0,0.0,51,0.00,,CLR,0.00,VWS V14.01,2013-02-19 09:40:00,
2013-02-19 03:50:00,48.2,33.3,30.14,East,90,0.0,0.0,56,0.00,,CLR,0.00,VWS V14.01,2013-02-19 09:50:00,
2013-02-19 04:00:00,46.8,33.2,30.14,East,90,0.0,1.0,59,0.00,,CLR,0.00,VWS V14.01,2013-02-19 10:00:00,
2013-02-19 04:10:00,45.8,32.3,30.14,East,90,0.0,0.0,59,0.00,,CLR,0.00,VWS V14.01,2013-02-19 10:10:00,
2013-02-19 04:20:00,45.0,32.8,30.14,East,90,0.0,1.0,62,0.00,,CLR,0.00,VWS V14.01,2013-02-19 10:20:00,
2013-02-19 04:30:00,44.4,31.8,30.15,East,90,0.0,0.0,61,0.00,,CLR,0.00,VWS V14.01,2013-02-19 10:30:00,
2013-02-19 04:40:00,44.1,32.7,30.15,East,90,0.0,1.0,64,0.00,,CLR,0.00,VWS V14.01,2013-02-19 10:40:00,
2013-02-19 04:50:00,43.8,32.0,30.15,East,90,0.0,0.0,63,0.00,,CLR,0.00,VWS V14.01,2013-02-19 10:50:00,
2013-02-19 05:00:00,43.7,32.0,30.15,East,90,0.0,0.0,63,0.00,,CLR,0.00,VWS V14.01,2013-02-19 11:00:00,
2013-02-19 05:10:00,43.6,32.2,30.15,East,90,0.0,0.0,64,0.00,,CLR,0.00,VWS V14.01,2013-02-19 11:10:00,
2013-02-19 05:20:00,43.2,32.6,30.15,East,90,0.0,0.0,66,0.00,,CLR,0.00,VWS V14.01,2013-02-19 11:20:00,
2013-02-19 05:30:00,42.8,32.2,30.16,East,90,0.0,0.0,66,0.00,,CLR,0.00,VWS V14.01,2013-02-19 11:30:00,
2013-02-19 05:40:00,42.5,32.0,30.16,East,90,0.0,0.0,66,0.00,,CLR,0.00,VWS V14.01,2013-02-19 11:40:00,
2013-02-19 05:50:00,42.1,32.7,30.16,East,90,0.0,1.0,69,0.00,,CLR,0.00,VWS V14.01,2013-02-19 11:50:00,
2013-02-19 06:00:00,41.7,31.9,30.16,East,90,0.0,0.0,68,0.00,,CLR,0.00,VWS V14.01,2013-02-19 12:00:00,
2013-02-19 06:10:00,41.6,31.8,30.16,East,90,0.0,0.0,68,0.00,,OVC075,0.00,VWS V14.01,2013-02-19 12:10:00,
2013-02-19 06:15:00,41.6,31.8,30.16,East,90,0.0,0.0,68,0.00,,CLR,0.00,VWS V14.01,2013-02-19 12:15:00,
2013-02-19 06:20:00,41.1,32.4,30.18,East,86,0.0,0.0,71,0.00,,CLR,0.00,VWS V14.01,2013-02-19 12:20:00,
2013-02-19 06:25:00,41.1,32.8,30.18,East,86,0.0,0.0,72,0.00,,CLR,0.00,VWS V14.01,2013-02-19 12:25:00,
2013-02-19 06:30:00,41.1,32.8,30.18,East,86,0.0,0.0,72,0.00,,CLR,0.00,VWS V14.01,2013-02-19 12:30:00,
2013-02-19 06:35:00,41.0,32.3,30.18,East,86,0.0,1.0,71,0.00,,CLR,0.00,VWS V14.01,2013-02-19 12:35:00,
2013-02-19 06:40:00,41.0,32.3,30.18,East,86,0.0,0.0,71,0.00,,CLR,0.00,VWS V14.01,2013-02-19 12:40:00,
2013-02-19 06:45:00,41.0,32.7,30.18,East,86,0.0,0.0,72,0.00,,CLR,0.00,VWS V14.01,2013-02-19 12:45:00,
2013-02-19 06:50:00,41.0,32.3,30.19,East,86,0.0,1.0,71,0.00,,CLR,0.00,VWS V14.01,2013-02-19 12:50:00,
2013-02-19 06:55:00,40.8,32.1,30.19,East,86,0.0,1.0,71,0.00,,CLR,0.00,VWS V14.01,2013-02-19 12:55:00,
2013-02-19 07:00:00,41.0,32.7,30.19,East,86,0.0,1.0,72,0.00,,CLR,0.00,VWS V14.01,2013-02-19 13:00:00,
2013-02-19 07:05:00,41.1,32.4,30.20,East,86,0.0,1.0,71,0.00,,CLR,0.00,VWS V14.01,2013-02-19 13:05:00,
2013-02-19 07:10:00,41.3,32.3,30.20,East,86,0.0,1.0,70,0.00,,CLR,0.00,VWS V14.01,2013-02-19 13:10:00,
2013-02-19 07:15:00,41.4,32.4,30.20,East,86,0.0,1.0,70,0.00,,CLR,0.00,VWS V14.01,2013-02-19 13:15:00,
2013-02-19 07:20:00,41.4,32.4,30.20,East,86,0.0,0.0,70,0.00,,CLR,0.00,VWS V14.01,2013-02-19 13:20:00,
2013-02-19 07:25:00,41.7,32.3,30.20,East,86,0.0,1.0,69,0.00,,CLR,0.00,VWS V14.01,2013-02-19 13:25:00,
2013-02-19 07:30:00,42.0,32.2,30.20,East,86,0.0,1.0,68,0.00,,CLR,0.00,VWS V14.01,2013-02-19 13:30:00,
2013-02-19 07:35:00,42.1,32.0,30.21,East,86,0.0,1.0,67,0.00,,CLR,0.00,VWS V14.01,2013-02-19 13:35:00,
2013-02-19 07:40:00,42.3,32.1,30.21,East,86,0.0,1.0,67,0.00,,CLR,0.00,VWS V14.01,2013-02-19 13:40:00,
2013-02-19 07:45:00,42.6,32.4,30.21,East,86,0.0,1.0,67,0.00,,CLR,0.00,VWS V14.01,2013-02-19 13:45:00,
2013-02-19 07:50:00,42.7,32.5,30.21,East,86,0.0,0.0,67,0.00,,CLR,0.00,VWS V14.01,2013-02-19 13:50:00,
2013-02-19 07:55:00,43.0,32.4,30.21,East,86,0.0,1.0,66,0.00,,CLR,0.00,VWS V14.01,2013-02-19 13:55:00,
2013-02-19 08:00:00,43.4,33.2,30.21,East,86,0.0,0.0,67,0.00,,CLR,0.00,VWS V14.01,2013-02-19 14:00:00,
2013-02-19 08:05:00,43.8,33.2,30.22,East,86,0.0,1.0,66,0.00,,CLR,0.00,VWS V14.01,2013-02-19 14:05:00,
2013-02-19 08:10:00,44.6,33.6,30.22,East,86,0.0,2.0,65,0.00,,CLR,0.00,VWS V14.01,2013-02-19 14:10:00,
2013-02-19 08:15:00,45.6,34.1,30.22,East,86,0.0,2.0,64,0.00,,CLR,0.00,VWS V14.01,2013-02-19 14:15:00,
2013-02-19 08:20:00,46.3,34.0,30.23,East,86,0.0,0.0,62,0.00,,CLR,0.00,VWS V14.01,2013-02-19 14:20:00,
2013-02-19 08:25:00,46.9,34.6,30.23,East,85,0.0,2.0,62,0.00,,CLR,0.00,VWS V14.01,2013-02-19 14:25:00,
2013-02-19 08:30:00,47.4,34.2,30.23,East,85,2.0,2.0,60,0.00,,CLR,0.00,VWS V14.01,2013-02-19 14:30:00,
2013-02-19 08:35:00,47.8,34.6,30.24,East,85,0.0,2.0,60,0.00,,CLR,0.00,VWS V14.01,2013-02-19 14:35:00,
2013-02-19 08:40:00,48.4,33.9,30.24,East,85,0.0,2.0,57,0.00,,CLR,0.00,VWS V14.01,2013-02-19 14:40:00,
2013-02-19 08:45:00,49.1,33.2,30.24,North,9,0.0,4.0,54,0.00,,CLR,0.00,VWS V14.01,2013-02-19 14:45:00,
2013-02-19 08:50:00,50.0,34.5,30.24,North,9,0.0,3.0,55,0.00,,CLR,0.00,VWS V14.01,2013-02-19 14:50:00,
2013-02-19 08:55:00,50.8,33.3,30.24,NE,52,1.0,3.0,51,0.00,,CLR,0.00,VWS V14.01,2013-02-19 14:55:00,
2013-02-19 09:00:00,51.8,34.3,30.24,NE,46,4.0,4.0,51,0.00,,CLR,0.00,VWS V14.01,2013-02-19 15:00:00,
2013-02-19 09:05:00,52.7,33.0,30.24,ESE,116,1.0,4.0,47,0.00,,CLR,0.00,VWS V14.01,2013-02-19 15:05:00,
2013-02-19 09:10:00,53.3,33.1,30.24,NE,53,1.0,4.0,46,0.00,,CLR,0.00,VWS V14.01,2013-02-19 15:10:00,
2013-02-19 09:15:00,53.7,32.9,30.24,NE,38,1.0,5.0,45,0.00,,CLR,0.00,VWS V14.01,2013-02-19 15:15:00,
2013-02-19 09:20:00,54.2,32.8,30.24,NNE,29,3.0,5.0,44,0.00,,CLR,0.00,VWS V14.01,2013-02-19 15:20:00,
2013-02-19 09:25:00,54.5,31.9,30.24,NNE,32,3.0,8.0,42,0.00,,CLR,0.00,VWS V14.01,2013-02-19 15:25:00,
2013-02-19 09:30:00,54.8,31.6,30.24,ENE,59,1.0,6.0,41,0.00,,CLR,0.00,VWS V14.01,2013-02-19 15:30:00,
2013-02-19 09:35:00,55.1,31.8,30.24,North,9,2.0,11.0,41,0.00,,CLR,0.00,VWS V14.01,2013-02-19 15:35:00,
2013-02-19 09:40:00,55.4,30.9,30.24,ESE,117,0.0,7.0,39,0.00,,CLR,0.00,VWS V14.01,2013-02-19 15:40:00,
2013-02-19 09:45:00,55.7,30.5,30.24,East,94,1.0,8.0,38,0.00,,CLR,0.00,VWS V14.01,2013-02-19 15:45:00,
2013-02-19 09:50:00,56.1,30.2,30.24,NE,36,5.0,5.0,37,0.00,,CLR,0.00,VWS V14.01,2013-02-19 15:50:00,
2013-02-19 09:55:00,56.4,29.8,30.24,East,89,2.0,6.0,36,0.00,,CLR,0.00,VWS V14.01,2013-02-19 15:55:00,
2013-02-19 10:00:00,56.4,29.8,30.24,ENE,70,0.0,5.0,36,0.00,,CLR,0.00,VWS V14.01,2013-02-19 16:00:00,
2013-02-19 10:05:00,56.5,30.6,30.24,NE,53,2.0,7.0,37,0.00,,CLR,0.00,VWS V14.01,2013-02-19 16:05:00,
2013-02-19 10:10:00,56.4,29.8,30.24,NE,42,2.0,7.0,36,0.00,,OVC075,0.00,VWS V14.01,2013-02-19 16:10:00,
2013-02-19 10:11:00,56.8,31.5,30.24,NNE,32,2.0,7.0,38,0.00,,CLR,0.00,VWS V14.01,2013-02-19 16:11:00,
2013-02-19 10:16:00,57.1,29.0,30.24,NE,56,2.0,8.0,34,0.00,,CLR,0.00,VWS V14.01,2013-02-19 16:16:00,
2013-02-19 10:20:00,56.7,30.1,30.24,NE,38,1.0,8.0,36,0.00,,OVC075,0.00,VWS V14.01,2013-02-19 16:20:00,
2013-02-19 10:21:00,57.6,30.2,30.24,NE,39,2.0,6.0,35,0.00,,CLR,0.00,VWS V14.01,2013-02-19 16:21:00,
2013-02-19 10:26:00,57.9,31.1,30.24,NNE,18,1.0,6.0,36,0.00,,CLR,0.00,VWS V14.01,2013-02-19 16:26:00,
2013-02-19 10:30:00,57.3,29.2,30.24,NNE,30,1.0,8.0,34,0.00,,OVC075,0.00,VWS V14.01,2013-02-19 16:30:00,
2013-02-19 10:31:00,58.2,30.0,30.24,NNE,26,2.0,4.0,34,0.00,,CLR,0.00,VWS V14.01,2013-02-19 16:31:00,
2013-02-19 10:36:00,58.8,29.0,30.24,NE,49,0.0,5.0,32,0.00,,CLR,0.00,VWS V14.01,2013-02-19 16:36:00,
2013-02-19 10:40:00,58.1,29.2,30.24,NNE,24,0.0,8.0,33,0.00,,OVC075,0.00,VWS V14.01,2013-02-19 16:40:00,
2013-02-19 10:41:00,59.1,29.3,30.24,ESE,107,1.0,8.0,32,0.00,,CLR,0.00,VWS V14.01,2013-02-19 16:41:00,
2013-02-19 10:46:00,59.3,29.5,30.24,NNE,17,2.0,8.0,32,0.00,,CLR,0.00,VWS V14.01,2013-02-19 16:46:00,
2013-02-19 10:50:00,59.0,29.2,30.24,East,99,6.0,11.0,32,0.00,,OVC075,0.00,VWS V14.01,2013-02-19 16:50:00,
2013-02-19 10:51:00,59.6,31.2,30.24,NNE,19,3.0,6.0,34,0.00,,CLR,0.00,VWS V14.01,2013-02-19 16:51:00,
2013-02-19 10:56:00,59.6,27.3,30.24,NE,34,2.0,8.0,29,0.00,,CLR,0.00,VWS V14.01,2013-02-19 16:56:00,
2013-02-19 11:00:00,59.4,28.0,30.24,NNE,22,4.0,8.0,30,0.00,,OVC075,0.00,VWS V14.01,2013-02-19 17:00:00,
2013-02-19 11:01:00,59.9,28.4,30.24,NNE,21,2.0,5.0,30,0.00,,CLR,0.00,VWS V14.01,2013-02-19 17:01:00,
2013-02-19 11:06:00,60.2,29.5,30.24,NNE,24,0.0,8.0,31,0.00,,CLR,0.00,VWS V14.01,2013-02-19 17:06:00,
2013-02-19 11:10:00,59.7,28.2,30.24,East,80,0.0,8.0,30,0.00,,OVC075,0.00,VWS V14.01,2013-02-19 17:10:00,
2013-02-19 11:11:00,60.8,29.2,30.24,NNE,12,3.0,4.0,30,0.00,,CLR,0.00,VWS V14.01,2013-02-19 17:11:00,
2013-02-19 11:16:00,61.0,29.4,30.24,NNW,331,3.0,5.0,30,0.00,,CLR,0.00,VWS V14.01,2013-02-19 17:16:00,
2013-02-19 11:20:00,60.5,28.9,30.24,East,89,0.0,8.0,30,0.00,,OVC075,0.00,VWS V14.01,2013-02-19 17:20:00,
2013-02-19 11:21:00,61.1,27.8,30.24,ESE,122,2.0,7.0,28,0.00,,CLR,0.00,VWS V14.01,2013-02-19 17:21:00,
2013-02-19 11:26:00,61.3,29.6,30.24,East,90,1.0,7.0,30,0.00,,CLR,0.00,VWS V14.01,2013-02-19 17:26:00,
2013-02-19 11:30:00,61.1,29.5,30.24,North,5,1.0,7.0,30,0.00,,OVC075,0.00,VWS V14.01,2013-02-19 17:30:00,
2013-02-19 11:31:00,61.9,28.5,30.24,NE,40,3.0,6.0,28,0.00,,CLR,0.00,VWS V14.01,2013-02-19 17:31:00,
2013-02-19 11:36:00,62.6,28.2,30.24,ENE,69,0.0,6.0,27,0.00,,CLR,0.00,VWS V14.01,2013-02-19 17:36:00,
2013-02-19 11:40:00,61.6,30.7,30.24,NE,52,1.0,7.0,31,0.00,,OVC075,0.00,VWS V14.01,2013-02-19 17:40:00,
2013-02-19 11:41:00,63.0,27.6,30.24,ENE,62,0.0,4.0,26,0.00,,CLR,0.00,VWS V14.01,2013-02-19 17:41:00,
2013-02-19 11:46:00,63.5,29.0,30.24,NNE,33,2.0,6.0,27,0.00,,CLR,0.00,VWS V14.01,2013-02-19 17:46:00,
2013-02-19 11:50:00,62.7,28.3,30.24,NW,310,0.0,6.0,27,0.00,,OVC075,0.00,VWS V14.01,2013-02-19 17:50:00,
2013-02-19 11:51:00,63.8,30.1,30.23,North,360,2.0,4.0,28,0.00,,CLR,0.00,VWS V14.01,2013-02-19 17:51:00,
2013-02-19 11:56:00,64.2,30.4,30.23,SSE,159,4.0,5.0,28,0.00,,CLR,0.00,VWS V14.01,2013-02-19 17:56:00,
2013-02-19 12:00:00,63.7,26.3,30.23,North,10,2.0,6.0,24,0.00,,OVC075,0.00,VWS V14.01,2013-02-19 18:00:00,
2013-02-19 12:01:00,64.2,27.7,30.23,NNE,22,2.0,4.0,25,0.00,,CLR,0.00,VWS V14.01,2013-02-19 18:01:00,
2013-02-19 12:06:00,64.5,26.9,30.23,SE,137,2.0,5.0,24,0.00,,CLR,0.00,VWS V14.01,2013-02-19 18:06:00,
2013-02-19 12:10:00,64.3,26.8,30.23,North,5,3.0,8.0,24,0.00,,OVC075,0.00,VWS V14.01,2013-02-19 18:10:00,
2013-02-19 12:11:00,64.8,27.2,30.23,NE,47,1.0,7.0,24,0.00,,CLR,0.00,VWS V14.01,2013-02-19 18:11:00,
2013-02-19 12:16:00,65.5,30.7,30.23,East,98,1.0,7.0,27,0.00,,CLR,0.00,VWS V14.01,2013-02-19 18:16:00,
2013-02-19 12:20:00,64.5,27.9,30.23,NE,55,1.0,7.0,25,0.00,,OVC075,0.00,VWS V14.01,2013-02-19 18:20:00,
2013-02-19 12:21:00,66.1,28.3,30.23,North,5,0.0,5.0,24,0.00,,CLR,0.00,VWS V14.01,2013-02-19 18:21:00,
2013-02-19 12:26:00,66.1,30.2,30.23,ESE,117,2.0,5.0,26,0.00,,CLR,0.00,VWS V14.01,2013-02-19 18:26:00,
2013-02-19 12:30:00,65.8,29.0,30.23,ENE,61,2.0,7.0,25,0.00,,OVC075,0.00,VWS V14.01,2013-02-19 18:30:00,
2013-02-19 12:31:00,65.9,28.1,30.23,NE,52,0.0,5.0,24,0.00,,CLR,0.00,VWS V14.01,2013-02-19 18:31:00,
2013-02-19 12:36:00,65.8,29.0,30.21,NE,45,0.0,5.0,25,0.00,,CLR,0.00,VWS V14.01,2013-02-19 18:36:00,
2013-02-19 12:40:00,66.1,28.3,30.23,North,11,5.0,6.0,24,0.00,,OVC075,0.00,VWS V14.01,2013-02-19 18:40:00,
2013-02-19 12:41:00,66.1,28.3,30.21,NE,39,0.0,5.0,24,0.00,,CLR,0.00,VWS V14.01,2013-02-19 18:41:00,
2013-02-19 12:46:00,66.3,27.4,30.21,ENE,59,1.0,7.0,23,0.00,,CLR,0.00,VWS V14.01,2013-02-19 18:46:00,
2013-02-19 12:50:00,65.9,30.1,30.21,North,355,5.0,6.0,26,0.00,,OVC075,0.00,VWS V14.01,2013-02-19 18:50:00,
2013-02-19 12:51:00,66.4,28.5,30.20,ESE,107,5.0,5.0,24,0.00,,CLR,0.00,VWS V14.01,2013-02-19 18:51:00,
2013-02-19 12:56:00,66.6,26.6,30.20,ENE,71,1.0,8.0,22,0.00,,CLR,0.00,VWS V14.01,2013-02-19 18:56:00,
2013-02-19 13:00:00,66.3,27.4,30.20,NNW,333,1.0,7.0,23,0.00,,OVC075,0.00,VWS V14.01,2013-02-19 19:00:00,
2013-02-19 13:01:00,66.9,30.0,30.20,SE,144,2.0,5.0,25,0.00,,CLR,0.00,VWS V14.01,2013-02-19 19:01:00,
2013-02-19 13:06:00,67.8,28.7,30.19,ESE,107,0.0,5.0,23,0.00,,CLR,0.00,VWS V14.01,2013-02-19 19:06:00,
2013-02-19 13:10:00,66.8,27.8,30.20,North,355,4.0,8.0,23,0.00,,OVC075,0.00,VWS V14.01,2013-02-19 19:10:00,
2013-02-19 13:11:00,68.1,26.7,30.19,NE,55,1.0,6.0,21,0.00,,CLR,0.00,VWS V14.01,2013-02-19 19:11:00,
2013-02-19 13:16:00,67.9,28.8,30.19,North,9,1.0,7.0,23,0.00,,CLR,0.00,VWS V14.01,2013-02-19 19:16:00,
2013-02-19 13:20:00,67.9,28.8,30.19,ESE,123,6.0,6.0,23,0.00,,OVC075,0.00,VWS V14.01,2013-02-19 19:20:00,
2013-02-19 13:21:00,67.9,28.8,30.18,East,88,1.0,8.0,23,0.00,,CLR,0.00,VWS V14.01,2013-02-19 19:21:00,
2013-02-19 13:26:00,68.6,28.3,30.18,NE,40,4.0,8.0,22,0.00,,CLR,0.00,VWS V14.01,2013-02-19 19:26:00,
2013-02-19 13:30:00,67.9,28.8,30.18,ENE,57,1.0,7.0,23,0.00,,OVC075,0.00,VWS V14.01,2013-02-19 19:30:00,
2013-02-19 13:31:00,68.4,24.6,30.18,NE,37,3.0,6.0,19,0.00,,CLR,0.00,VWS V14.01,2013-02-19 19:31:00,
2013-02-19 13:36:00,67.8,27.6,30.17,NNE,15,0.0,9.0,22,0.00,,CLR,0.00,VWS V14.01,2013-02-19 19:36:00,
2013-02-19 13:40:00,68.8,26.1,30.18,NE,51,3.0,8.0,20,0.00,,OVC075,0.00,VWS V14.01,2013-02-19 19:40:00,
2013-02-19 13:41:00,67.8,26.5,30.17,ENE,74,2.0,4.0,21,0.00,,CLR,0.00,VWS V14.01,2013-02-19 19:41:00,
2013-02-19 13:46:00,68.4,27.0,30.17,NE,42,4.0,4.0,21,0.00,,CLR,0.00,VWS V14.01,2013-02-19 19:46:00,
2013-02-19 13:50:00,67.6,26.3,30.17,North,5,0.0,9.0,21,0.00,,OVC075,0.00,VWS V14.01,2013-02-19 19:50:00,
2013-02-19 13:51:00,67.9,25.4,30.17,NE,46,2.0,4.0,20,0.00,,CLR,0.00,VWS V14.01,2013-02-19 19:51:00,
2013-02-19 13:56:00,67.1,27.0,30.17,ENE,71,0.0,4.0,22,0.00,,CLR,0.00,VWS V14.01,2013-02-19 19:56:00,
2013-02-19 14:00:00,68.3,25.7,30.17,East,88,0.0,6.0,20,0.00,,OVC075,0.00,VWS V14.01,2013-02-19 20:00:00,
2013-02-19 14:01:00,67.1,27.0,30.17,NE,55,2.0,5.0,22,0.00,,CLR,0.00,VWS V14.01,2013-02-19 20:01:00,
2013-02-19 14:06:00,68.3,26.9,30.15,ENE,71,1.0,6.0,21,0.00,,CLR,0.00,VWS V14.01,2013-02-19 20:06:00,
2013-02-19 14:10:00,66.9,27.9,30.17,NNE,26,1.0,4.0,23,0.00,,OVC075,0.00,VWS V14.01,2013-02-19 20:10:00,
2013-02-19 14:11:00,68.8,28.4,30.15,NNE,31,0.0,8.0,22,0.00,,CLR,0.00,VWS V14.01,2013-02-19 20:11:00,
2013-02-19 14:16:00,69.1,29.8,30.15,ESE,117,0.0,9.0,23,0.00,,CLR,0.00,VWS V14.01,2013-02-19 20:16:00,
2013-02-19 14:20:00,68.8,28.4,30.15,NE,34,6.0,6.0,22,0.00,,OVC075,0.00,VWS V14.01,2013-02-19 20:20:00,
2013-02-19 14:21:00,69.3,27.7,30.14,NNE,19,2.0,6.0,21,0.00,,CLR,0.00,VWS V14.01,2013-02-19 20:21:00,
2013-02-19 14:26:00,69.4,25.4,30.14,NNE,30,1.0,10.0,19,0.00,,CLR,0.00,VWS V14.01,2013-02-19 20:26:00,
2013-02-19 14:30:00,69.1,27.6,30.14,North,360,1.0,9.0,21,0.00,,OVC075,0.00,VWS V14.01,2013-02-19 20:30:00,
2013-02-19 14:31:00,69.8,29.3,30.14,NE,53,4.0,6.0,22,0.00,,CLR,0.00,VWS V14.01,2013-02-19 20:31:00,
2013-02-19 14:36:00,69.6,26.8,30.14,SE,145,2.0,7.0,20,0.00,,CLR,0.00,VWS V14.01,2013-02-19 20:36:00,
2013-02-19 14:40:00,69.6,28.0,30.14,NE,36,2.0,10.0,21,0.00,,OVC075,0.00,VWS V14.01,2013-02-19 20:40:00,
2013-02-19 14:41:00,69.9,27.0,30.14,ESE,117,0.0,7.0,20,0.00,,CLR,0.00,VWS V14.01,2013-02-19 20:41:00,
2013-02-19 14:46:00,70.1,26.0,30.14,East,92,2.0,7.0,19,0.00,,CLR,0.00,VWS V14.01,2013-02-19 20:46:00,
2013-02-19 14:50:00,69.6,28.0,30.14,SE,138,2.0,7.0,21,0.00,,OVC075,0.00,VWS V14.01,2013-02-19 20:50:00,
2013-02-19 14:51:00,69.6,30.2,30.13,ESE,119,7.0,9.0,23,0.00,,CLR,0.00,VWS V14.01,2013-02-19 20:51:00,
2013-02-19 14:56:00,68.9,23.7,30.13,ENE,70,2.0,9.0,18,0.00,,CLR,0.00,VWS V14.01,2013-02-19 20:56:00,
2013-02-19 15:00:00,69.9,24.5,30.13,ESE,114,5.0,7.0,18,0.00,,OVC075,0.00,VWS V14.01,2013-02-19 21:00:00,
2013-02-19 15:01:00,67.8,22.8,30.13,ESE,105,1.0,9.0,18,0.00,,CLR,0.00,VWS V14.01,2013-02-19 21:01:00,
2013-02-19 15:06:00,67.1,24.7,30.12,ESE,110,0.0,9.0,20,0.00,,CLR,0.00,VWS V14.01,2013-02-19 21:06:00,
2013-02-19 15:10:00,68.4,23.3,30.13,NNE,26,4.0,9.0,18,0.00,,OVC075,0.00,VWS V14.01,2013-02-19 21:10:00,
2013-02-19 15:11:00,66.8,23.2,30.12,ESE,108,0.0,2.0,19,0.00,,CLR,0.00,VWS V14.01,2013-02-19 21:11:00,
2013-02-19 15:16:00,66.6,24.3,30.12,NNW,345,0.0,4.0,20,0.00,,CLR,0.00,VWS V14.01,2013-02-19 21:16:00,
2013-02-19 15:20:00,66.9,25.7,30.12,NE,41,2.0,9.0,21,0.00,,OVC075,0.00,VWS V14.01,2013-02-19 21:20:00,
2013-02-19 15:21:00,66.6,23.1,30.12,NNE,13,3.0,11.0,19,0.00,,CLR,0.00,VWS V14.01,2013-02-19 21:21:00,
2013-02-19 15:26:00,66.4,25.3,30.12,East,92,1.0,11.0,21,0.00,,CLR,0.00,VWS V14.01,2013-02-19 21:26:00,
2013-02-19 15:30:00,66.6,23.1,30.12,NE,39,0.0,5.0,19,0.00,,OVC075,0.00,VWS V14.01,2013-02-19 21:30:00,
2013-02-19 15:31:00,66.6,24.3,30.12,ENE,64,0.0,2.0,20,0.00,,CLR,0.00,VWS V14.01,2013-02-19 21:31:00,
2013-02-19 15:36:00,66.6,24.3,30.11,SE,128,2.0,5.0,20,0.00,,CLR,0.00,VWS V14.01,2013-02-19 21:36:00,
2013-02-19 15:40:00,66.4,22.9,30.12,SE,146,1.0,11.0,19,0.00,,OVC075,0.00,VWS V14.01,2013-02-19 21:40:00,
2013-02-19 15:41:00,66.6,24.3,30.11,East,94,2.0,8.0,20,0.00,,CLR,0.00,VWS V14.01,2013-02-19 21:41:00,
2013-02-19 15:46:00,66.6,24.3,30.11,ESE,109,1.0,8.0,20,0.00,,CLR,0.00,VWS V14.01,2013-02-19 21:46:00,
2013-02-19 15:50:00,66.6,23.1,30.11,ESE,112,0.0,5.0,19,0.00,,OVC075,0.00,VWS V14.01,2013-02-19 21:50:00,
2013-02-19 15:51:00,66.6,24.3,30.10,East,80,0.0,2.0,20,0.00,,CLR,0.00,VWS V14.01,2013-02-19 21:51:00,
2013-02-19 15:56:00,66.6,25.5,30.10,SE,145,0.0,5.0,21,0.00,,CLR,0.00,VWS V14.01,2013-02-19 21:56:00,
2013-02-19 16:00:00,66.6,24.3,30.10,ESE,110,0.0,8.0,20,0.00,,OVC075,0.00,VWS V14.01,2013-02-19 22:00:00,
2013-02-19 16:01:00,66.8,24.5,30.10,ENE,71,1.0,5.0,20,0.00,,CLR,0.00,VWS V14.01,2013-02-19 22:01:00,
2013-02-19 16:06:00,66.6,24.3,30.10,NE,34,1.0,5.0,20,0.00,,FEW070,0.00,VWS V14.01,2013-02-19 22:06:00,
2013-02-19 16:10:00,66.8,24.5,30.10,SE,144,0.0,5.0,20,0.00,,OVC075,0.00,VWS V14.01,2013-02-19 22:10:00,
2013-02-19 16:11:00,66.4,25.3,30.10,SSE,147,0.0,1.0,21,0.00,,FEW070,0.00,VWS V14.01,2013-02-19 22:11:00,
2013-02-19 16:16:00,66.1,25.1,30.10,SE,125,0.0,4.0,21,0.00,,FEW070,0.00,VWS V14.01,2013-02-19 22:16:00,
2013-02-19 16:20:00,66.6,21.8,30.10,SSE,150,0.0,5.0,18,0.00,,OVC075,0.00,VWS V14.01,2013-02-19 22:20:00,
2013-02-19 16:21:00,65.9,22.5,30.10,ESE,106,0.0,5.0,19,0.00,,FEW070,0.00,VWS V14.01,2013-02-19 22:21:00,
2013-02-19 16:26:00,66.1,25.1,30.10,ESE,121,0.0,5.0,21,0.00,,FEW070,0.00,VWS V14.01,2013-02-19 22:26:00,
2013-02-19 16:30:00,66.1,25.1,30.10,SE,125,0.0,4.0,21,0.00,,OVC075,0.00,VWS V14.01,2013-02-19 22:30:00,
2013-02-19 16:31:00,66.3,27.4,30.10,East,89,0.0,2.0,23,0.00,,FEW070,0.00,VWS V14.01,2013-02-19 22:31:00,
2013-02-19 16:36:00,66.3,25.2,30.09,SE,127,2.0,4.0,21,0.00,,FEW070,0.00,VWS V14.01,2013-02-19 22:36:00,
2013-02-19 16:40:00,66.1,23.9,30.10,ESE,119,0.0,5.0,20,0.00,,OVC075,0.00,VWS V14.01,2013-02-19 22:40:00,
2013-02-19 16:41:00,66.3,25.2,30.09,NNE,24,0.0,3.0,21,0.00,,FEW070,0.00,VWS V14.01,2013-02-19 22:41:00,
2013-02-19 16:46:00,66.1,25.1,30.09,NNE,31,2.0,6.0,21,0.00,,FEW070,0.00,VWS V14.01,2013-02-19 22:46:00,
2013-02-19 16:50:00,66.3,26.4,30.09,SE,124,0.0,4.0,22,0.00,,OVC075,0.00,VWS V14.01,2013-02-19 22:50:00,
2013-02-19 16:51:00,65.9,27.1,30.09,ESE,103,2.0,2.0,23,0.00,,FEW070,0.00,VWS V14.01,2013-02-19 22:51:00,
2013-02-19 16:56:00,65.9,24.9,30.09,ENE,63,0.0,4.0,21,0.00,,FEW070,0.00,VWS V14.01,2013-02-19 22:56:00,
2013-02-19 17:00:00,66.1,25.1,30.09,East,90,1.0,6.0,21,0.00,,OVC075,0.00,VWS V14.01,2013-02-19 23:00:00,
2013-02-19 17:01:00,65.8,24.8,30.09,ESE,119,2.0,6.0,21,0.00,,FEW070,0.00,VWS V14.01,2013-02-19 23:01:00,
2013-02-19 17:06:00,65.8,24.8,30.09,East,96,0.0,6.0,21,0.00,,FEW070,0.00,VWS V14.01,2013-02-19 23:06:00,
2013-02-19 17:10:00,65.8,24.8,30.09,NE,44,1.0,4.0,21,0.00,,OVC075,0.00,VWS V14.01,2013-02-19 23:10:00,
2013-02-19 17:11:00,65.6,24.6,30.09,NNE,15,4.0,5.0,21,0.00,,FEW070,0.00,VWS V14.01,2013-02-19 23:11:00,
2013-02-19 17:16:00,65.5,25.7,30.09,NNE,29,0.0,5.0,22,0.00,,FEW070,0.00,VWS V14.01,2013-02-19 23:16:00,
2013-02-19 17:20:00,65.6,25.8,30.09,SE,128,4.0,6.0,22,0.00,,OVC075,0.00,VWS V14.01,2013-02-19 23:20:00,
2013-02-19 17:21:00,65.5,26.8,30.09,NNE,29,0.0,0.0,23,0.00,,FEW070,0.00,VWS V14.01,2013-02-19 23:21:00,
2013-02-19 17:26:00,65.3,25.5,30.09,East,95,0.0,1.0,22,0.00,,FEW070,0.00,VWS V14.01,2013-02-19 23:26:00,
2013-02-19 17:30:00,65.5,27.8,30.09,NNE,29,0.0,5.0,24,0.00,,OVC075,0.00,VWS V14.01,2013-02-19 23:30:00,
2013-02-19 17:31:00,65.1,25.3,30.09,ESE,107,0.0,2.0,22,0.00,,FEW070,0.00,VWS V14.01,2013-02-19 23:31:00,
2013-02-19 17:36:00,65.0,25.3,30.09,North,355,0.0,4.0,22,0.00,,FEW070,0.00,VWS V14.01,2013-02-19 23:36:00,
2013-02-19 17:40:00,65.3,25.5,30.09,SE,133,0.0,2.0,22,0.00,,OVC075,0.00,VWS V14.01,2013-02-19 23:40:00,
2013-02-19 17:41:00,64.8,26.2,30.09,NE,47,0.0,2.0,23,0.00,,FEW070,0.00,VWS V14.01,2013-02-19 23:41:00,
2013-02-19 17:46:00,64.7,26.1,30.09,NE,47,0.0,2.0,23,0.00,,FEW070,0.00,VWS V14.01,2013-02-19 23:46:00,
2013-02-19 17:50:00,64.8,26.2,30.09,East,96,0.0,6.0,23,0.00,,OVC075,0.00,VWS V14.01,2013-02-19 23:50:00,
2013-02-19 17:51:00,64.5,25.9,30.09,NE,53,0.0,2.0,23,0.00,,FEW070,0.00,VWS V14.01,2013-02-19 23:51:00,
2013-02-19 17:56:00,64.3,23.6,30.09,NNW,346,2.0,4.0,21,0.00,,FEW070,0.00,VWS V14.01,2013-02-19 23:56:00,
2013-02-19 18:00:00,64.5,24.8,30.09,NE,47,0.0,2.0,22,0.00,,OVC075,0.00,VWS V14.01,2013-02-20 00:00:00,
2013-02-19 18:01:00,64.2,24.6,30.09,ESE,115,1.0,1.0,22,0.00,,FEW070,0.00,VWS V14.01,2013-02-20 00:01:00,
2013-02-19 18:06:00,64.2,25.7,30.10,ESE,115,0.0,2.0,23,0.00,,CLR,0.00,VWS V14.01,2013-02-20 00:06:00,
2013-02-19 18:10:00,64.3,23.6,30.09,SE,126,0.0,4.0,21,0.00,,OVC075,0.00,VWS V14.01,2013-02-20 00:10:00,
2013-02-19 18:11:00,64.0,23.3,30.10,SE,126,0.0,2.0,21,0.00,,CLR,0.00,VWS V14.01,2013-02-20 00:11:00,
2013-02-19 18:16:00,63.8,23.1,30.10,SE,130,0.0,2.0,21,0.00,,CLR,0.00,VWS V14.01,2013-02-20 00:16:00,
2013-02-19 18:20:00,64.0,23.3,30.10,ESE,115,0.0,2.0,21,0.00,,OVC075,0.00,VWS V14.01,2013-02-20 00:20:00,
2013-02-19 18:21:00,63.7,24.2,30.10,SE,136,0.0,4.0,22,0.00,,CLR,0.00,VWS V14.01,2013-02-20 00:21:00,
2013-02-19 18:26:00,63.5,24.0,30.10,ESE,121,0.0,4.0,22,0.00,,CLR,0.00,VWS V14.01,2013-02-20 00:26:00,
2013-02-19 18:30:00,63.8,23.1,30.10,SE,130,0.0,2.0,21,0.00,,OVC075,0.00,VWS V14.01,2013-02-20 00:30:00,
2013-02-19 18:31:00,63.4,25.0,30.10,ESE,121,0.0,0.0,23,0.00,,CLR,0.00,VWS V14.01,2013-02-20 00:31:00,
2013-02-19 18:36:00,63.0,23.6,30.10,ESE,121,0.0,1.0,22,0.00,,CLR,0.00,VWS V14.01,2013-02-20 00:36:00,
2013-02-19 18:40:00,63.5,25.1,30.10,ESE,121,0.0,4.0,23,0.00,,OVC075,0.00,VWS V14.01,2013-02-20 00:40:00,
2013-02-19 18:41:00,62.7,24.4,30.10,ESE,121,0.0,0.0,23,0.00,,CLR,0.00,VWS V14.01,2013-02-20 00:41:00,
2013-02-19 18:46:00,62.4,24.1,30.10,ESE,121,0.0,1.0,23,0.00,,CLR,0.00,VWS V14.01,2013-02-20 00:46:00,
2013-02-19 18:50:00,62.9,24.6,30.10,ESE,121,0.0,1.0,23,0.00,,OVC075,0.00,VWS V14.01,2013-02-20 00:50:00,
2013-02-19 18:51:00,62.2,25.0,30.09,ESE,115,0.0,2.0,24,0.00,,CLR,0.00,VWS V14.01,2013-02-20 00:51:00,
2013-02-19 18:56:00,62.1,24.9,30.09,ESE,119,0.0,2.0,24,0.00,,CLR,0.00,VWS V14.01,2013-02-20 00:56:00,
2013-02-19 19:00:00,62.4,25.2,30.09,ESE,121,0.0,1.0,24,0.00,,OVC075,0.00,VWS V14.01,2013-02-20 01:00:00,
2013-02-19 19:01:00,61.8,24.6,30.09,ESE,119,0.0,2.0,24,0.00,,CLR,0.00,VWS V14.01,2013-02-20 01:01:00,
2013-02-19 19:06:00,61.6,24.5,30.09,ESE,119,0.0,2.0,24,0.00,,FEW065,0.00,VWS V14.01,2013-02-20 01:06:00,
2013-02-19 19:10:00,61.9,24.7,30.09,ESE,119,0.0,2.0,24,0.00,,OVC075,0.00,VWS V14.01,2013-02-20 01:10:00,
2013-02-19 19:11:00,61.5,25.4,30.09,ESE,119,0.0,1.0,25,0.00,,FEW065,0.00,VWS V14.01,2013-02-20 01:11:00,
2013-02-19 19:16:00,61.3,25.2,30.09,ESE,119,0.0,2.0,25,0.00,,FEW065,0.00,VWS V14.01,2013-02-20 01:16:00,
2013-02-19 19:20:00,61.6,25.5,30.09,ESE,119,0.0,2.0,25,0.00,,OVC075,0.00,VWS V14.01,2013-02-20 01:20:00,
2013-02-19 19:21:00,61.3,25.2,30.10,ESE,119,0.0,0.0,25,0.00,,FEW065,0.00,VWS V14.01,2013-02-20 01:21:00,
2013-02-19 19:26:00,61.1,25.0,30.10,ESE,119,0.0,1.0,25,0.00,,FEW065,0.00,VWS V14.01,2013-02-20 01:26:00,
2013-02-19 19:30:00,61.3,24.2,30.10,ESE,119,0.0,2.0,24,0.00,,OVC075,0.00,VWS V14.01,2013-02-20 01:30:00,
2013-02-19 19:32:00,61.1,26.0,30.10,ESE,117,0.0,1.0,26,0.00,,FEW065,0.00,VWS V14.01,2013-02-20 01:32:00,
2013-02-19 19:36:00,61.0,25.9,30.09,ESE,116,0.0,2.0,26,0.00,,FEW065,0.00,VWS V14.01,2013-02-20 01:36:00,
2013-02-19 19:40:00,61.1,25.0,30.10,ESE,117,0.0,1.0,25,0.00,,OVC075,0.00,VWS V14.01,2013-02-20 01:40:00,
2013-02-19 19:42:00,61.0,25.0,30.09,ESE,116,0.0,1.0,25,0.00,,FEW065,0.00,VWS V14.01,2013-02-20 01:42:00,
2013-02-19 19:47:00,60.8,25.7,30.09,ESE,116,0.0,1.0,26,0.00,,FEW065,0.00,VWS V14.01,2013-02-20 01:47:00,
2013-02-19 19:50:00,61.0,25.9,30.09,ESE,116,1.0,2.0,26,0.00,,OVC075,0.00,VWS V14.01,2013-02-20 01:50:00,
2013-02-19 19:52:00,60.8,25.7,30.09,ESE,116,0.0,2.0,26,0.00,,FEW065,0.00,VWS V14.01,2013-02-20 01:52:00,
2013-02-19 19:57:00,60.7,25.6,30.09,ESE,116,0.0,2.0,26,0.00,,FEW065,0.00,VWS V14.01,2013-02-20 01:57:00,
2013-02-19 20:00:00,60.8,25.7,30.09,ESE,116,0.0,1.0,26,0.00,,OVC075,0.00,VWS V14.01,2013-02-20 02:00:00,
2013-02-19 20:02:00,60.7,26.5,30.09,ESE,116,0.0,0.0,27,0.00,,FEW065,0.00,VWS V14.01,2013-02-20 02:02:00,
2013-02-19 20:07:00,60.7,26.5,30.08,ESE,116,0.0,1.0,27,0.00,,FEW085,0.00,VWS V14.01,2013-02-20 02:07:00,
2013-02-19 20:10:00,60.7,25.6,30.09,ESE,116,0.0,2.0,26,0.00,,OVC075,0.00,VWS V14.01,2013-02-20 02:10:00,
2013-02-19 20:12:00,60.5,26.4,30.08,ESE,116,0.0,4.0,27,0.00,,FEW085,0.00,VWS V14.01,2013-02-20 02:12:00,
2013-02-19 20:17:00,60.5,26.4,30.08,NNE,30,0.0,4.0,27,0.00,,FEW085,0.00,VWS V14.01,2013-02-20 02:17:00,
2013-02-19 20:20:00,60.5,26.4,30.08,ESE,116,0.0,1.0,27,0.00,,OVC075,0.00,VWS V14.01,2013-02-20 02:20:00,
2013-02-19 20:22:00,60.5,26.4,30.10,NNE,30,0.0,2.0,27,0.00,,FEW085,0.00,VWS V14.01,2013-02-20 02:22:00,
2013-02-19 20:27:00,60.5,26.4,30.10,NNE,30,0.0,2.0,27,0.00,,FEW085,0.00,VWS V14.01,2013-02-20 02:27:00,
2013-02-19 20:30:00,60.5,26.4,30.10,NNE,30,0.0,4.0,27,0.00,,OVC075,0.00,VWS V14.01,2013-02-20 02:30:00,
2013-02-19 20:32:00,60.4,26.3,30.10,NNE,30,0.0,0.0,27,0.00,,FEW085,0.00,VWS V14.01,2013-02-20 02:32:00,
2013-02-19 20:37:00,60.2,27.0,30.10,NNE,30,0.0,0.0,28,0.00,,FEW085,0.00,VWS V14.01,2013-02-20 02:37:00,
2013-02-19 20:40:00,60.4,27.2,30.10,NNE,30,0.0,2.0,28,0.00,,OVC075,0.00,VWS V14.01,2013-02-20 02:40:00,
2013-02-19 20:42:00,60.0,27.7,30.10,NNE,30,0.0,0.0,29,0.00,,FEW085,0.00,VWS V14.01,2013-02-20 02:42:00,
2013-02-19 20:47:00,60.0,26.0,30.10,NE,43,0.0,4.0,27,0.00,,FEW085,0.00,VWS V14.01,2013-02-20 02:47:00,
2013-02-19 20:50:00,60.2,27.0,30.10,NNE,30,0.0,0.0,28,0.00,,OVC075,0.00,VWS V14.01,2013-02-20 02:50:00,
2013-02-19 20:52:00,60.0,25.0,30.09,East,97,1.0,5.0,26,0.00,,FEW085,0.00,VWS V14.01,2013-02-20 02:52:00,
2013-02-19 20:57:00,60.0,26.0,30.09,ESE,120,1.0,5.0,27,0.00,,FEW085,0.00,VWS V14.01,2013-02-20 02:57:00,
2013-02-19 21:00:00,60.0,26.0,30.09,East,94,2.0,4.0,27,0.00,,OVC075,0.00,VWS V14.01,2013-02-20 03:00:00,
2013-02-19 21:02:00,60.0,26.0,30.09,ESE,119,0.0,1.0,27,0.00,,FEW085,0.00,VWS V14.01,2013-02-20 03:02:00,
2013-02-19 21:07:00,59.9,25.0,30.09,ESE,119,0.0,1.0,26,0.00,,OVC090,0.00,VWS V14.01,2013-02-20 03:07:00,
2013-02-19 21:10:00,60.0,25.0,30.09,ESE,119,0.0,5.0,26,0.00,,OVC075,0.00,VWS V14.01,2013-02-20 03:10:00,
2013-02-19 21:12:00,59.7,25.7,30.09,ESE,123,1.0,7.0,27,0.00,,OVC090,0.00,VWS V14.01,2013-02-20 03:12:00,
2013-02-19 21:17:00,59.6,24.7,30.09,NE,45,0.0,7.0,26,0.00,,OVC090,0.00,VWS V14.01,2013-02-20 03:17:00,
2013-02-19 21:20:00,59.7,24.8,30.09,ESE,119,0.0,1.0,26,0.00,,OVC075,0.00,VWS V14.01,2013-02-20 03:20:00,
2013-02-19 21:22:00,59.6,25.6,30.09,SE,143,0.0,4.0,27,0.00,,OVC090,0.00,VWS V14.01,2013-02-20 03:22:00,
2013-02-19 21:27:00,59.4,25.4,30.09,SE,135,0.0,4.0,27,0.00,,OVC090,0.00,VWS V14.01,2013-02-20 03:27:00,
2013-02-19 21:30:00,59.6,25.6,30.09,East,86,0.0,7.0,27,0.00,,OVC075,0.00,VWS V14.01,2013-02-20 03:30:00,
2013-02-19 21:32:00,59.3,26.2,30.09,SE,135,0.0,2.0,28,0.00,,OVC090,0.00,VWS V14.01,2013-02-20 03:32:00,
2013-02-19 21:37:00,59.1,26.0,30.10,SE,135,1.0,2.0,28,0.00,,OVC090,0.00,VWS V14.01,2013-02-20 03:37:00,
2013-02-19 21:40:00,59.4,25.4,30.09,SE,135,0.0,4.0,27,0.00,,OVC075,0.00,VWS V14.01,2013-02-20 03:40:00,
2013-02-19 21:42:00,59.1,26.0,30.10,SE,134,0.0,1.0,28,0.00,,OVC090,0.00,VWS V14.01,2013-02-20 03:42:00,
2013-02-19 21:47:00,59.0,26.0,30.10,SE,135,0.0,4.0,28,0.00,,OVC090,0.00,VWS V14.01,2013-02-20 03:47:00,
2013-02-19 21:50:00,59.1,26.9,30.10,SE,135,0.0,2.0,29,0.00,,OVC075,0.00,VWS V14.01,2013-02-20 03:50:00,
2013-02-19 21:52:00,59.0,26.0,30.10,SE,131,0.0,4.0,28,0.00,,OVC090,0.00,VWS V14.01,2013-02-20 03:52:00,
2013-02-19 21:57:00,59.1,26.0,30.10,SE,144,4.0,4.0,28,0.00,,OVC090,0.00,VWS V14.01,2013-02-20 03:57:00,
2013-02-19 22:00:00,59.0,26.8,30.10,SE,135,0.0,4.0,29,0.00,,OVC075,0.00,VWS V14.01,2013-02-20 04:00:00,
2013-02-19 22:02:00,59.1,26.0,30.10,SSE,154,1.0,4.0,28,0.00,,OVC085,0.00,VWS V14.01,2013-02-20 04:02:00,
2013-02-19 22:07:00,59.1,26.0,30.11,SE,144,0.0,5.0,28,0.00,,OVC085,0.00,VWS V14.01,2013-02-20 04:07:00,
2013-02-19 22:10:00,59.1,26.0,30.10,SE,144,0.0,4.0,28,0.00,,OVC075,0.00,VWS V14.01,2013-02-20 04:10:00,
2013-02-19 22:12:00,59.0,26.8,30.11,SE,126,0.0,2.0,29,0.00,,OVC085,0.00,VWS V14.01,2013-02-20 04:12:00,
2013-02-19 22:17:00,58.8,26.6,30.11,ESE,117,1.0,5.0,29,0.00,,OVC085,0.00,VWS V14.01,2013-02-20 04:17:00,
2013-02-19 22:20:00,59.1,26.0,30.11,SE,144,0.0,5.0,28,0.00,,OVC075,0.00,VWS V14.01,2013-02-20 04:20:00,
2013-02-19 22:22:00,58.7,26.5,30.09,ESE,117,0.0,1.0,29,0.00,,OVC085,0.00,VWS V14.01,2013-02-20 04:22:00,
2013-02-19 22:27:00,58.5,28.0,30.09,ESE,119,0.0,4.0,31,0.00,,OVC085,0.00,VWS V14.01,2013-02-20 04:27:00,
2013-02-19 22:30:00,58.8,26.6,30.09,ESE,116,0.0,5.0,29,0.00,,OVC075,0.00,VWS V14.01,2013-02-20 04:30:00,
2013-02-19 22:32:00,58.4,27.1,30.09,SE,135,0.0,2.0,30,0.00,,OVC085,0.00,VWS V14.01,2013-02-20 04:32:00,
2013-02-19 22:37:00,58.2,27.7,30.10,SE,135,0.0,4.0,31,0.00,,OVC085,0.00,VWS V14.01,2013-02-20 04:37:00,
2013-02-19 22:40:00,58.5,27.2,30.09,SE,135,0.0,4.0,30,0.00,,OVC075,0.00,VWS V14.01,2013-02-20 04:40:00,
2013-02-19 22:42:00,58.2,27.7,30.10,SE,134,0.0,1.0,31,0.00,,OVC085,0.00,VWS V14.01,2013-02-20 04:42:00,
2013-02-19 22:47:00,58.2,27.7,30.10,SE,133,0.0,4.0,31,0.00,,OVC085,0.00,VWS V14.01,2013-02-20 04:47:00,
2013-02-19 22:50:00,58.2,28.5,30.10,SE,134,0.0,4.0,32,0.00,,OVC075,0.00,VWS V14.01,2013-02-20 04:50:00,
2013-02-19 22:52:00,58.2,28.5,30.09,ESE,121,0.0,2.0,32,0.00,,OVC085,0.00,VWS V14.01,2013-02-20 04:52:00,
2013-02-19 22:57:00,58.1,28.4,30.09,SE,139,1.0,4.0,32,0.00,,OVC085,0.00,VWS V14.01,2013-02-20 04:57:00,
2013-02-19 23:00:00,58.1,28.4,30.09,SE,137,0.0,1.0,32,0.00,,OVC085,0.00,VWS V14.01,2013-02-20 05:00:00,
2013-02-19 23:05:00,58.1,29.9,30.09,SE,128,1.0,2.0,34,0.00,,OVC075,0.00,VWS V14.01,2013-02-20 05:05:00,
2013-02-19 23:10:00,57.9,29.0,30.09,SE,126,0.0,1.0,33,0.00,,OVC075,0.00,VWS V14.01,2013-02-20 05:10:00,
2013-02-19 23:15:00,57.9,29.0,30.09,SE,136,0.0,6.0,33,0.00,,OVC075,0.00,VWS V14.01,2013-02-20 05:15:00,
2013-02-19 23:20:00,57.8,28.9,30.07,ESE,123,0.0,2.0,33,0.00,,OVC075,0.00,VWS V14.01,2013-02-20 05:20:00,
2013-02-19 23:25:00,57.8,29.6,30.07,ESE,103,0.0,5.0,34,0.00,,OVC075,0.00,VWS V14.01,2013-02-20 05:25:00,
2013-02-19 23:30:00,57.8,30.4,30.07,East,97,1.0,1.0,35,0.00,,OVC075,0.00,VWS V14.01,2013-02-20 05:30:00,
2013-02-19 23:35:00,57.6,29.5,30.07,SE,142,0.0,5.0,34,0.00,,OVC075,0.00,VWS V14.01,2013-02-20 05:35:00,
2013-02-19 23:40:00,57.6,29.5,30.07,SE,139,0.0,5.0,34,0.00,,OVC075,0.00,VWS V14.01,2013-02-20 05:40:00,
2013-02-19 23:50:00,57.6,29.5,30.07,SE,142,4.0,5.0,34,0.00,,OVC075,0.00,VWS V14.01,2013-02-20 05:50:00,